createdAt,value
2022-09-11T00:01:22.249Z,101176.31
2022-09-11T00:03:50.206Z,101176.25
2022-09-11T00:06:29.199Z,101176.19
2022-09-11T00:09:01.561Z,101181.72
2022-09-11T00:11:31.314Z,101185.34
2022-09-11T00:13:59.481Z,101179.91
2022-09-11T00:16:30.055Z,101183.72
2022-09-11T00:19:01.021Z,101174.69
2022-09-11T00:21:30.418Z,101181.03
2022-09-11T00:23:59.837Z,101176.59
2022-09-11T00:26:28.388Z,101182.88
2022-09-11T00:28:57.341Z,101163.53
2022-09-11T00:31:27.905Z,101157.25
2022-09-11T00:33:56.724Z,101176.69
2022-09-11T00:36:26.365Z,101178.84
2022-09-11T00:38:55.785Z,101184.34
2022-09-11T00:41:27.612Z,101176.44
2022-09-11T00:43:59.532Z,101182.13
2022-09-11T00:46:37.327Z,101182.13
2022-09-11T00:49:15.917Z,101186.53
2022-09-11T00:51:45.919Z,101179.56
2022-09-11T00:54:17.106Z,101191.22
2022-09-11T00:56:47.436Z,101179.66
2022-09-11T00:59:16.657Z,101178.91
2022-09-11T01:01:44.680Z,101176.16
2022-09-11T01:04:13.162Z,101178.91
2022-09-11T01:06:41.278Z,101177.22
2022-09-11T01:09:09.236Z,101181.59
2022-09-11T01:11:53.488Z,101183.44
2022-09-11T01:14:34.849Z,101170.41
2022-09-11T01:17:18.136Z,101189.88
2022-09-11T01:20:16.620Z,101193.50
2022-09-11T01:23:13.673Z,101194.16
2022-09-11T01:26:02.150Z,101188.06
2022-09-11T01:28:37.229Z,101196.84
2022-09-11T01:31:11.445Z,101196.22
2022-09-11T01:33:46.251Z,101199.78
2022-09-11T01:36:21.117Z,101204.91
2022-09-11T01:38:53.879Z,101198.63
2022-09-11T01:41:29.083Z,101200.31
2022-09-11T01:44:03.681Z,101204.91
2022-09-11T01:46:35.472Z,101205.75
2022-09-11T01:49:07.673Z,101202.22
2022-09-11T01:51:38.227Z,101200.38
2022-09-11T01:54:09.630Z,101196.84
2022-09-11T01:56:42.716Z,101188.25
2022-09-11T01:59:18.010Z,101205.81
2022-09-11T02:01:51.269Z,101187.47
2022-09-11T02:04:24.488Z,101203.13
2022-09-11T02:06:59.270Z,101209.22
2022-09-11T02:09:33.451Z,101205.63
2022-09-11T02:12:06.885Z,101213.91
2022-09-11T02:14:40.873Z,101212.22
2022-09-11T02:17:16.894Z,101216.47
2022-09-11T02:19:44.952Z,101220.72
2022-09-11T02:22:13.094Z,101222.53
2022-09-11T02:24:41.040Z,101217.22
2022-09-11T02:27:13.457Z,101226.22
2022-09-11T02:29:43.481Z,101223.66
2022-09-11T02:32:11.853Z,101233.63
2022-09-11T02:34:43.001Z,101227.38
2022-09-11T02:37:31.201Z,101233.31
2022-09-11T02:40:22.190Z,101231.66
2022-09-11T02:43:08.656Z,101220.91
2022-09-11T02:45:47.961Z,101223.47
2022-09-11T02:48:31.051Z,101225.19
2022-09-11T02:51:04.101Z,101235.06
2022-09-11T02:53:39.719Z,101230.53
2022-09-11T02:56:13.121Z,101225.25
2022-09-11T02:58:47.355Z,101235.91
2022-09-11T03:01:16.731Z,101238.75
2022-09-11T03:03:46.637Z,101242.38
2022-09-11T03:06:17.498Z,101225.94
2022-09-11T03:08:45.605Z,101245.13
2022-09-11T03:11:15.348Z,101245.97
2022-09-11T03:13:43.972Z,101248.59
2022-09-11T03:16:12.277Z,101259.28
2022-09-11T03:18:42.053Z,101253.84
2022-09-11T03:21:11.342Z,101238.63
2022-09-11T03:23:39.483Z,101251.03
2022-09-11T03:26:07.520Z,101244.69
2022-09-11T03:28:35.739Z,101250.19
2022-09-11T03:31:05.040Z,101249.13
2022-09-11T03:33:33.011Z,101251.94
2022-09-11T03:36:03.358Z,101243.91
2022-09-11T03:38:31.315Z,101252.75
2022-09-11T03:40:59.376Z,101260.97
2022-09-11T03:43:27.308Z,101263.78
2022-09-11T03:45:55.337Z,101254.97
2022-09-11T03:48:25.433Z,101259.09
2022-09-11T03:50:53.397Z,101260.75
2022-09-11T03:53:22.716Z,101270.59
2022-09-11T03:55:50.873Z,101256.28
2022-09-11T03:58:19.582Z,101266.94
2022-09-11T04:00:48.333Z,101264.25
2022-09-11T04:03:17.463Z,101259.75
2022-09-11T04:05:57.759Z,101259.75
2022-09-11T04:08:27.441Z,101266.81
2022-09-11T04:10:59.091Z,101265.81
2022-09-11T04:13:28.474Z,101263.13
2022-09-11T04:16:00.318Z,101260.38
2022-09-11T04:18:29.346Z,101264.06
2022-09-11T04:20:57.508Z,101264.00
2022-09-11T04:23:27.119Z,101261.44
2022-09-11T04:25:55.064Z,101258.66
2022-09-11T04:28:23.654Z,101264.88
2022-09-11T04:30:51.597Z,101264.75
2022-09-11T04:33:19.526Z,101274.56
2022-09-11T04:35:47.923Z,101279.22
2022-09-11T04:38:15.896Z,101277.38
2022-09-11T04:40:45.592Z,101264.19
2022-09-11T04:43:13.940Z,101283.66
2022-09-11T04:45:41.912Z,101287.28
2022-09-11T04:48:09.880Z,101290.84
2022-09-11T04:50:37.841Z,101295.25
2022-09-11T04:53:06.741Z,101296.03
2022-09-11T04:55:34.672Z,101286.09
2022-09-11T04:58:04.002Z,101288.09
2022-09-11T05:00:32.201Z,101296.97
2022-09-11T05:03:00.117Z,101301.41
2022-09-11T05:05:28.044Z,101292.38
2022-09-11T05:07:55.968Z,101293.22
2022-09-11T05:10:23.884Z,101308.41
2022-09-11T05:12:51.814Z,101312.88
2022-09-11T05:15:21.075Z,101309.16
2022-09-11T05:17:50.703Z,101317.03
2022-09-11T05:20:18.681Z,101318.75
2022-09-11T05:22:47.011Z,101323.97
2022-09-11T05:25:15.120Z,101323.97
2022-09-11T05:27:43.041Z,101314.91
2022-09-11T05:30:12.278Z,101328.47
2022-09-11T05:32:41.565Z,101331.09
2022-09-11T05:35:09.843Z,101329.38
2022-09-11T05:37:37.785Z,101329.28
2022-09-11T05:40:06.882Z,101335.34
2022-09-11T05:42:34.907Z,101333.09
2022-09-11T05:45:02.820Z,101327.66
2022-09-11T05:47:30.764Z,101336.56
2022-09-11T05:50:00.125Z,101346.25
2022-09-11T05:52:32.036Z,101338.28
2022-09-11T05:54:59.984Z,101341.53
2022-09-11T05:57:27.915Z,101344.16
2022-09-11T05:59:55.859Z,101345.84
2022-09-11T06:02:23.869Z,101339.25
2022-09-11T06:04:52.023Z,101347.13
2022-09-11T06:07:21.333Z,101347.13
2022-09-11T06:09:49.297Z,101350.81
2022-09-11T06:12:18.494Z,101358.16
2022-09-11T06:14:46.410Z,101369.69
2022-09-11T06:17:14.328Z,101365.94
2022-09-11T06:19:42.291Z,101376.81
2022-09-11T06:22:10.311Z,101365.28
2022-09-11T06:24:39.609Z,101371.50
2022-09-11T06:27:07.582Z,101367.84
2022-09-11T06:29:35.525Z,101379.44
2022-09-11T06:32:03.861Z,101382.97
2022-09-11T06:34:32.529Z,101383.72
2022-09-11T06:37:00.482Z,101381.03
2022-09-11T06:39:28.414Z,101381.88
2022-09-11T06:41:57.709Z,101379.25
2022-09-11T06:44:27.354Z,101378.06
2022-09-11T06:46:55.801Z,101383.38
2022-09-11T06:49:23.705Z,101385.94
2022-09-11T06:51:52.300Z,101390.22
2022-09-11T06:54:20.561Z,101392.84
2022-09-11T06:56:48.470Z,101387.66
2022-09-11T06:59:17.798Z,101385.03
2022-09-11T07:01:45.769Z,101377.69
2022-09-11T07:04:13.732Z,101382.09
2022-09-11T07:06:41.666Z,101376.97
2022-09-11T07:09:12.537Z,101382.09
2022-09-11T07:11:43.775Z,101378.84
2022-09-11T07:14:12.043Z,101379.00
2022-09-11T07:16:41.385Z,101390.72
2022-09-11T07:19:10.498Z,101391.00
2022-09-11T07:21:38.456Z,101396.56
2022-09-11T07:24:07.053Z,101399.56
2022-09-11T07:26:35.660Z,101405.75
2022-09-11T07:29:03.708Z,101405.88
2022-09-11T07:31:34.369Z,101400.44
2022-09-11T07:34:03.765Z,101405.56
2022-09-11T07:36:34.383Z,101411.25
2022-09-11T07:39:03.697Z,101406.59
2022-09-11T07:41:31.882Z,101411.13
2022-09-11T07:44:01.224Z,101391.06
2022-09-11T07:46:30.941Z,101406.84
2022-09-11T07:48:59.224Z,101417.09
2022-09-11T07:51:28.616Z,101408.81
2022-09-11T07:53:59.442Z,101405.47
2022-09-11T07:56:28.590Z,101415.50
2022-09-11T07:58:57.497Z,101427.63
2022-09-11T08:01:27.423Z,101429.47
2022-09-11T08:03:57.640Z,101425.50
2022-09-11T08:06:27.158Z,101426.72
2022-09-11T08:08:58.861Z,101423.88
2022-09-11T08:11:28.235Z,101426.38
2022-09-11T08:13:57.379Z,101426.44
2022-09-11T08:16:27.884Z,101436.47
2022-09-11T08:18:56.987Z,101425.94
2022-09-11T08:21:26.141Z,101434.88
2022-09-11T08:23:54.554Z,101439.09
2022-09-11T08:26:25.731Z,101436.28
2022-09-11T08:28:55.659Z,101446.16
2022-09-11T08:31:26.898Z,101445.47
2022-09-11T08:33:55.614Z,101447.91
2022-09-11T08:36:24.429Z,101446.91
2022-09-11T08:38:52.983Z,101447.47
2022-09-11T08:41:31.184Z,101458.09
2022-09-11T08:44:02.759Z,101448.50
2022-09-11T08:46:35.709Z,101452.06
2022-09-11T08:49:11.497Z,101438.69
2022-09-11T08:51:40.405Z,101456.72
2022-09-11T08:54:08.965Z,101465.72
2022-09-11T08:56:39.208Z,101461.84
2022-09-11T08:59:19.757Z,101458.16
2022-09-11T09:01:57.857Z,101458.19
2022-09-11T09:04:45.494Z,101457.59
2022-09-11T09:07:25.186Z,101462.84
2022-09-11T09:10:01.952Z,101454.34
2022-09-11T09:12:40.227Z,101456.34
2022-09-11T09:15:27.351Z,101451.66
2022-09-11T09:18:00.682Z,101454.81
2022-09-11T09:20:32.831Z,101438.66
2022-09-11T09:23:05.162Z,101458.97
2022-09-11T09:25:37.819Z,101453.38
2022-09-11T09:28:15.881Z,101453.59
2022-09-11T09:30:50.362Z,101453.78
2022-09-11T09:33:30.932Z,101446.56
2022-09-11T09:36:07.658Z,101463.19
2022-09-11T09:38:35.630Z,101459.09
2022-09-11T09:41:20.474Z,101457.72
2022-09-11T09:44:01.989Z,101462.44
2022-09-11T09:46:41.705Z,101460.59
2022-09-11T09:49:11.703Z,101462.44
2022-09-11T09:51:40.523Z,101457.28
2022-09-11T09:54:15.935Z,101426.44
2022-09-11T09:56:49.399Z,101457.38
2022-09-11T09:59:27.693Z,101460.44
2022-09-11T10:01:56.374Z,101450.38
2022-09-11T10:04:26.967Z,101460.78
2022-09-11T10:07:06.196Z,101466.09
2022-09-11T10:09:34.420Z,101465.94
2022-09-11T10:12:06.042Z,101461.31
2022-09-11T10:14:52.272Z,101465.47
2022-09-11T10:17:21.747Z,101465.03
2022-09-11T10:19:56.957Z,101466.56
2022-09-11T10:22:30.616Z,101467.81
2022-09-11T10:25:04.913Z,101451.09
2022-09-11T10:27:36.215Z,101470.22
2022-09-11T10:30:06.379Z,101460.34
2022-09-11T10:32:40.641Z,101469.91
2022-09-11T10:35:11.234Z,101464.13
2022-09-11T10:37:39.188Z,101458.91
2022-09-11T10:40:20.329Z,101468.81
2022-09-11T10:42:50.340Z,101461.47
2022-09-11T10:45:22.461Z,101463.75
2022-09-11T10:47:50.484Z,101462.16
2022-09-11T10:50:25.337Z,101422.25
2022-09-11T10:53:06.718Z,101460.03
2022-09-11T10:55:38.868Z,101449.94
2022-09-11T10:58:13.598Z,101460.00
2022-09-11T11:00:42.953Z,101455.16
2022-09-11T11:03:17.264Z,101458.47
2022-09-11T11:05:54.151Z,101461.72
2022-09-11T11:08:45.893Z,101456.06
2022-09-11T11:11:25.631Z,101458.47
2022-09-11T11:14:06.196Z,101458.75
2022-09-11T11:16:47.485Z,101460.81
2022-09-11T11:19:38.025Z,101457.66
2022-09-11T11:22:13.483Z,101457.09
2022-09-11T11:24:55.209Z,101460.28
2022-09-11T11:28:07.764Z,101456.88
2022-09-11T11:30:43.125Z,101457.19
2022-09-11T11:33:31.621Z,101451.97
2022-09-11T11:36:04.392Z,101457.00
2022-09-11T11:38:40.260Z,101459.41
2022-09-11T11:41:16.647Z,101461.94
2022-09-11T11:43:46.320Z,101457.56
2022-09-11T11:46:19.395Z,101456.34
2022-09-11T11:48:56.261Z,101466.91
2022-09-11T11:51:28.375Z,101455.13
2022-09-11T11:54:02.991Z,101458.56
2022-09-11T11:56:39.144Z,101456.28
2022-09-11T11:59:16.442Z,101465.09
2022-09-11T12:01:49.538Z,101469.53
2022-09-11T12:04:30.874Z,101467.25
2022-09-11T12:07:00.983Z,101471.00
2022-09-11T12:09:33.892Z,101474.63
2022-09-11T12:12:07.157Z,101472.75
2022-09-11T12:14:35.339Z,101456.19
2022-09-11T12:17:19.780Z,101467.00
2022-09-11T12:20:33.265Z,101467.13
2022-09-11T12:23:01.722Z,101470.50
2022-09-11T12:25:53.654Z,101477.72
2022-09-11T12:28:23.892Z,101468.63
2022-09-11T12:31:01.177Z,101480.13
2022-09-11T12:33:54.434Z,101467.50
2022-09-11T12:36:44.889Z,101474.66
2022-09-11T12:39:27.062Z,101476.06
2022-09-11T12:42:33.302Z,101464.16
2022-09-11T12:45:04.474Z,101470.34
2022-09-11T12:47:36.722Z,101473.78
2022-09-11T12:50:16.402Z,101468.50
2022-09-11T12:52:55.112Z,101461.13
2022-09-11T12:55:33.184Z,101459.75
2022-09-11T12:58:06.711Z,101458.81
2022-09-11T13:00:39.519Z,101457.63
2022-09-11T13:03:17.317Z,101457.25
2022-09-11T13:05:54.533Z,101454.13
2022-09-11T13:08:27.664Z,101457.09
2022-09-11T13:11:35.282Z,101456.25
2022-09-11T13:14:04.332Z,101451.38
2022-09-11T13:16:34.823Z,101448.28
2022-09-11T13:19:13.471Z,101453.97
2022-09-11T13:21:42.968Z,101437.28
2022-09-11T13:24:25.240Z,101452.63
2022-09-11T13:26:55.346Z,101446.91
2022-09-11T13:29:26.697Z,101446.03
2022-09-11T13:31:55.686Z,101447.59
2022-09-11T13:34:26.088Z,101439.06
2022-09-11T13:36:56.638Z,101445.91
2022-09-11T13:39:27.877Z,101443.69
2022-09-11T13:42:02.516Z,101438.59
2022-09-11T13:44:41.481Z,101435.44
2022-09-11T13:47:18.644Z,101430.97
2022-09-11T13:49:48.542Z,101435.69
2022-09-11T13:52:17.277Z,101430.38
2022-09-11T13:54:50.325Z,101428.97
2022-09-11T13:57:20.799Z,101428.69
2022-09-11T13:59:51.969Z,101420.00
2022-09-11T14:02:41.407Z,101427.88
2022-09-11T14:05:14.192Z,101420.84
2022-09-11T14:07:47.427Z,101418.97
2022-09-11T14:10:25.397Z,101425.78
2022-09-11T14:12:59.365Z,101416.59
2022-09-11T14:15:39.869Z,101427.72
2022-09-11T14:18:14.103Z,101425.56
2022-09-11T14:20:45.861Z,101429.13
2022-09-11T14:23:19.954Z,101430.50
2022-09-11T14:26:09.555Z,101421.97
2022-09-11T14:28:43.933Z,101430.09
2022-09-11T14:31:14.342Z,101426.53
2022-09-11T14:33:42.509Z,101428.16
2022-09-11T14:36:19.603Z,101416.69
2022-09-11T14:38:48.558Z,101415.22
2022-09-11T14:41:17.847Z,101418.03
2022-09-11T14:43:49.510Z,101418.94
2022-09-11T14:46:17.711Z,101415.19
2022-09-11T14:48:45.728Z,101415.59
2022-09-11T14:51:13.944Z,101416.06
2022-09-11T14:53:43.433Z,101415.88
2022-09-11T14:56:11.681Z,101419.91
2022-09-11T14:58:41.059Z,101415.50
2022-09-11T15:01:10.714Z,101417.97
2022-09-11T15:03:39.115Z,101424.84
2022-09-11T15:06:15.435Z,101419.06
2022-09-11T15:08:43.388Z,101424.69
2022-09-11T15:11:11.506Z,101423.34
2022-09-11T15:13:57.940Z,101428.25
2022-09-11T15:16:28.948Z,101429.31
2022-09-11T15:18:56.893Z,101425.84
2022-09-11T15:21:24.818Z,101420.09
2022-09-11T15:23:53.990Z,101422.47
2022-09-11T15:26:22.182Z,101406.06
2022-09-11T15:28:53.334Z,101418.09
2022-09-11T15:31:21.439Z,101420.19
2022-09-11T15:33:51.518Z,101416.38
2022-09-11T15:36:21.314Z,101414.28
2022-09-11T15:38:53.482Z,101409.41
2022-09-11T15:41:21.940Z,101412.78
2022-09-11T15:43:51.522Z,101399.84
2022-09-11T15:46:22.590Z,101405.06
2022-09-11T15:48:51.557Z,101410.16
2022-09-11T15:51:21.699Z,101412.28
2022-09-11T15:53:49.627Z,101405.84
2022-09-11T15:56:23.869Z,101405.13
2022-09-11T15:58:58.211Z,101404.19
2022-09-11T16:01:28.968Z,101406.38
2022-09-11T16:06:29.121Z,101396.31
2022-09-11T16:08:57.926Z,101402.72
2022-09-11T16:11:26.717Z,101396.91
2022-09-11T16:13:56.053Z,101396.41
2022-09-11T16:16:24.260Z,101390.47
2022-09-11T16:18:53.184Z,101403.03
2022-09-11T16:21:23.107Z,101397.06
2022-09-11T16:23:55.074Z,101396.41
2022-09-11T16:26:25.189Z,101406.47
2022-09-11T16:28:53.180Z,101405.09
2022-09-11T16:31:22.562Z,101402.19
2022-09-11T16:33:50.981Z,101400.38
2022-09-11T16:36:20.554Z,101392.97
2022-09-11T16:38:50.102Z,101401.78
2022-09-11T16:41:20.376Z,101381.19
2022-09-11T16:43:50.045Z,101395.16
2022-09-11T16:46:19.930Z,101397.31
2022-09-11T16:48:53.950Z,101395.50
2022-09-11T16:51:23.486Z,101395.88
2022-09-11T16:53:52.173Z,101393.44
2022-09-11T16:56:22.858Z,101386.72
2022-09-11T16:58:50.972Z,101388.13
2022-09-11T17:01:21.224Z,101387.31
2022-09-11T17:03:52.740Z,101395.44
2022-09-11T17:06:21.972Z,101385.94
2022-09-11T17:08:50.938Z,101388.13
2022-09-11T17:11:20.815Z,101386.00
2022-09-11T17:13:49.531Z,101384.69
2022-09-11T17:16:19.551Z,101385.81
2022-09-11T17:18:48.660Z,101391.06
2022-09-11T17:21:18.343Z,101385.16
2022-09-11T17:23:46.462Z,101391.06
2022-09-11T17:26:16.794Z,101389.25
2022-09-11T17:28:47.244Z,101386.56
2022-09-11T17:31:17.552Z,101384.88
2022-09-11T17:33:46.241Z,101392.47
2022-09-11T17:36:17.178Z,101391.25
2022-09-11T17:38:48.356Z,101392.84
2022-09-11T17:41:17.175Z,101400.97
2022-09-11T17:43:45.334Z,101394.66
2022-09-11T17:46:16.010Z,101391.53
2022-09-11T17:48:44.414Z,101393.16
2022-09-11T17:51:15.511Z,101396.41
2022-09-11T17:53:48.250Z,101401.50
2022-09-11T17:56:18.556Z,101400.00
2022-09-11T17:58:50.983Z,101400.75
2022-09-11T18:01:19.393Z,101415.34
2022-09-11T18:03:51.401Z,101398.47
2022-09-11T18:06:23.245Z,101408.38
2022-09-11T18:08:54.460Z,101385.47
2022-09-11T18:11:22.559Z,101409.97
2022-09-11T18:13:50.535Z,101415.53
2022-09-11T18:16:18.590Z,101412.06
2022-09-11T18:18:46.552Z,101410.38
2022-09-11T18:21:14.696Z,101416.91
2022-09-11T18:23:45.556Z,101415.25
2022-09-11T18:26:23.047Z,101411.19
2022-09-11T18:28:51.595Z,101418.78
2022-09-11T18:31:20.168Z,101425.69
2022-09-11T18:33:54.643Z,101419.44
2022-09-11T18:36:23.569Z,101422.59
2022-09-11T18:38:51.747Z,101428.31
2022-09-11T18:41:21.787Z,101428.63
2022-09-11T18:43:50.067Z,101428.78
2022-09-11T18:46:19.006Z,101430.81
2022-09-11T18:48:47.101Z,101431.31
2022-09-11T18:51:15.252Z,101434.63
2022-09-11T18:53:43.855Z,101440.66
2022-09-11T18:56:12.053Z,101435.53
2022-09-11T18:58:41.816Z,101439.19
2022-09-11T19:01:11.512Z,101441.88
2022-09-11T19:03:42.138Z,101443.56
2022-09-11T19:06:12.319Z,101447.19
2022-09-11T19:08:44.307Z,101442.81
2022-09-11T19:11:14.344Z,101444.31
2022-09-11T19:13:44.855Z,101454.19
2022-09-11T19:16:14.550Z,101446.03
2022-09-11T19:18:43.045Z,101449.78
2022-09-11T19:21:13.030Z,101446.47
2022-09-11T19:23:42.372Z,101453.19
2022-09-11T19:26:12.654Z,101441.41
2022-09-11T19:28:44.157Z,101457.03
2022-09-11T19:31:14.301Z,101463.81
2022-09-11T19:33:44.396Z,101458.25
2022-09-11T19:36:17.121Z,101458.44
2022-09-11T19:38:46.844Z,101456.69
2022-09-11T19:41:17.220Z,101459.50
2022-09-11T19:43:47.623Z,101442.06
2022-09-11T19:46:17.271Z,101439.81
2022-09-11T19:48:46.392Z,101454.78
2022-09-11T19:51:17.282Z,101461.03
2022-09-11T19:53:45.931Z,101459.44
2022-09-11T19:56:14.040Z,101469.28
2022-09-11T19:58:43.065Z,101470.19
2022-09-11T20:01:14.444Z,101468.44
2022-09-11T20:03:44.044Z,101466.94
2022-09-11T20:06:13.987Z,101468.34
2022-09-11T20:08:43.866Z,101464.22
2022-09-11T20:11:14.152Z,101466.31
2022-09-11T20:13:42.360Z,101474.75
2022-09-11T20:16:15.948Z,101475.91
2022-09-11T20:18:44.498Z,101474.00
2022-09-11T20:21:15.518Z,101471.38
2022-09-11T20:23:44.638Z,101469.81
2022-09-11T20:26:17.399Z,101472.44
2022-09-11T20:28:46.428Z,101470.88
2022-09-11T20:31:17.718Z,101482.78
2022-09-11T20:33:47.592Z,101483.16
2022-09-11T20:36:15.648Z,101485.19
2022-09-11T20:38:43.897Z,101487.00
2022-09-11T20:41:13.983Z,101474.91
2022-09-11T20:43:42.721Z,101475.88
2022-09-11T20:46:12.390Z,101487.31
2022-09-11T20:48:41.725Z,101484.75
2022-09-11T20:51:11.785Z,101490.19
2022-09-11T20:53:41.650Z,101477.75
2022-09-11T20:56:11.276Z,101484.00
2022-09-11T20:58:39.883Z,101474.25
2022-09-11T21:01:09.287Z,101476.97
2022-09-11T21:03:37.285Z,101476.22
2022-09-11T21:06:10.031Z,101473.72
2022-09-11T21:08:38.222Z,101474.00
2022-09-11T21:11:06.836Z,101474.41
2022-09-11T21:13:35.832Z,101480.97
2022-09-11T21:16:07.238Z,101482.94
2022-09-11T21:18:35.990Z,101489.16
2022-09-11T21:21:04.460Z,101467.81
2022-09-11T21:23:34.186Z,101478.53
2022-09-11T21:26:02.459Z,101477.69
2022-09-11T21:28:30.381Z,101472.38
2022-09-11T21:30:59.496Z,101466.16
2022-09-11T21:33:27.857Z,101471.72
2022-09-11T21:35:56.326Z,101469.91
2022-09-11T21:38:28.414Z,101464.72
2022-09-11T21:40:58.544Z,101460.25
2022-09-11T21:43:27.174Z,101464.81
2022-09-11T21:45:55.436Z,101461.34
2022-09-11T21:48:24.296Z,101462.47
2022-09-11T21:50:52.891Z,101449.63
2022-09-11T21:53:21.254Z,101457.56
2022-09-11T21:55:49.507Z,101464.03
2022-09-11T21:58:21.234Z,101453.47
2022-09-11T22:00:50.033Z,101457.06
2022-09-11T22:03:19.502Z,101450.94
2022-09-11T22:05:51.190Z,101455.41
2022-09-11T22:08:20.208Z,101446.66
2022-09-11T22:10:50.443Z,101437.59
2022-09-11T22:13:20.545Z,101444.88
2022-09-11T22:15:50.959Z,101445.09
2022-09-11T22:18:19.980Z,101447.91
2022-09-11T22:20:47.981Z,101440.09
2022-09-11T22:23:18.091Z,101444.53
2022-09-11T22:25:47.100Z,101453.44
2022-09-11T22:28:15.982Z,101452.53
2022-09-11T22:30:45.408Z,101446.22
2022-09-11T22:33:13.346Z,101453.63
2022-09-11T22:35:41.285Z,101445.69
2022-09-11T22:38:09.253Z,101448.72
2022-09-11T22:40:37.190Z,101440.09
2022-09-11T22:43:05.156Z,101446.38
2022-09-11T22:45:33.187Z,101441.09
2022-09-11T22:48:02.969Z,101449.84
2022-09-11T22:50:31.012Z,101455.03
2022-09-11T22:52:58.956Z,101460.28
2022-09-11T22:55:26.884Z,101447.78
2022-09-11T22:57:55.182Z,101450.59
2022-09-11T23:00:23.304Z,101457.75
2022-09-11T23:02:51.241Z,101450.53
2022-09-11T23:05:37.978Z,101451.34
2022-09-11T23:08:05.933Z,101450.59
2022-09-11T23:10:33.875Z,101446.03
2022-09-11T23:13:01.830Z,101444.34
2022-09-11T23:15:29.754Z,101438.19
2022-09-11T23:17:57.687Z,101427.56
2022-09-11T23:20:27.042Z,101428.56
2022-09-11T23:22:55.105Z,101426.03
2022-09-11T23:25:25.050Z,101431.41
2022-09-11T23:27:53.694Z,101429.44
2022-09-11T23:30:21.638Z,101434.88
2022-09-11T23:32:49.601Z,101433.25
2022-09-11T23:35:18.403Z,101439.47
2022-09-11T23:37:48.129Z,101437.97
2022-09-11T23:40:16.267Z,101436.34
2022-09-11T23:42:44.274Z,101436.56
2022-09-11T23:45:12.969Z,101441.28
2022-09-11T23:47:40.893Z,101443.28
2022-09-11T23:50:10.753Z,101445.19
2022-09-11T23:52:39.563Z,101442.72
2022-09-11T23:55:09.605Z,101434.00
2022-09-11T23:57:37.568Z,101438.56
